Bookmark and Share
Track history (hours):
 

Phoenix Cross

Last reported at 2014-Apr-16 21:32 UTC. Time now 2014-Apr-16 22:34 UTC.
Position N 54°35' W 001°13'.

Length 30 m; draft 5 m.

Type: Ship. MMSI: 235067452.

NotesDate/timePositionNaut miles runAvg speedWind from/ knotsBaromVisibWave heightAir tempDewpointWater temp
2014-Apr-16 21:32N 54°35' W 001°13'0 0.0
2014-Apr-16 20:32N 54°35' W 001°13'0 0.0
2014-Apr-16 19:32N 54°35' W 001°13'0 0.0
2014-Apr-16 18:29N 54°35' W 001°13'0 0.0
2014-Apr-16 17:29N 54°35' W 001°13'5 5.3
2014-Apr-16 16:34N 54°39' W 001°08'3 3.3
2014-Apr-16 15:33N 54°42' W 001°12'6 5.8
2014-Apr-16 14:33N 54°36' W 001°10'2 1.9
2014-Apr-16 13:33N 54°35' W 001°13'0 0.0
2014-Apr-16 12:33N 54°35' W 001°13'0 0.0
2014-Apr-16 11:33N 54°35' W 001°13'0 0.0
2014-Apr-16 10:33N 54°35' W 001°13'0 0.0
2014-Apr-16 09:33N 54°35' W 001°13'0 0.0
2014-Apr-16 08:33N 54°35' W 001°13'1 1.4
2014-Apr-16 07:32N 54°36' W 001°11'2 2.1
2014-Apr-16 06:33N 54°38' W 001°10'4 4.4
2014-Apr-16 05:33N 54°42' W 001°11'0 0.0
2014-Apr-16 04:27N 54°42' W 001°11'0 0.1
2014-Apr-16 03:26N 54°42' W 001°11'0 0.1
2014-Apr-16 02:31N 54°42' W 001°12'1 1.4
2014-Apr-16 01:33N 54°41' W 001°10'6 6.2
2014-Apr-16 00:31N 54°35' W 001°13'0 0.0
2014-Apr-15 23:31N 54°35' W 001°13'0 0.0
2014-Apr-15 22:31N 54°35' W 001°13'0 0.0
2014-Apr-15 21:31N 54°35' W 001°13'0 0.0
2014-Apr-15 20:31N 54°35' W 001°13'0 0.0
2014-Apr-15 19:31N 54°35' W 001°13'0 0.0
2014-Apr-15 18:31N 54°35' W 001°13'0 0.0
2014-Apr-15 17:31N 54°35' W 001°13'0 0.0
2014-Apr-15 16:31N 54°35' W 001°13'0 0.0
2014-Apr-15 15:31N 54°35' W 001°13'0 0.0
2014-Apr-15 14:31N 54°35' W 001°13'0 0.0
2014-Apr-15 11:32N 54°35' W 001°13'0 0.0
2014-Apr-15 10:32N 54°35' W 001°13'0 0.0
2014-Apr-15 09:32N 54°35' W 001°13'0 0.0
2014-Apr-15 08:32N 54°35' W 001°13'0 0.0
2014-Apr-15 07:31N 54°35' W 001°13'0 0.0
2014-Apr-15 06:31N 54°35' W 001°13'0 0.0
2014-Apr-15 05:31N 54°35' W 001°13'0 0.0
2014-Apr-15 03:31N 54°35' W 001°13'0 0.0
2014-Apr-15 02:31N 54°35' W 001°13'0 0.0
2014-Apr-15 01:31N 54°35' W 001°13'0 0.0
2014-Apr-15 00:31N 54°35' W 001°13'0 0.0
2014-Apr-14 23:31N 54°35' W 001°13'0 0.0
2014-Apr-14 22:31N 54°35' W 001°13'0 0.0
2014-Apr-14 21:31N 54°35' W 001°13'0 0.0
2014-Apr-14 20:31N 54°35' W 001°13'0 0.0
2014-Apr-14 19:31N 54°35' W 001°13'0 0.0
2014-Apr-14 18:31N 54°35' W 001°13'0 0.0
2014-Apr-14 17:31N 54°35' W 001°13'0 0.0
2014-Apr-14 16:31N 54°35' W 001°13'0 0.0
2014-Apr-14 15:31N 54°35' W 001°13'0 0.0
2014-Apr-14 14:31N 54°35' W 001°13'1 0.6
2014-Apr-14 13:33N 54°35' W 001°12'1 0.3
2014-Apr-14 11:29N 54°35' W 001°13'0 0.0
2014-Apr-14 10:29N 54°35' W 001°13'0 0.0
2014-Apr-14 09:32N 54°35' W 001°13'0 0.0
2014-Apr-14 08:29N 54°35' W 001°13'0 0.0
2014-Apr-14 07:32N 54°35' W 001°13'0 0.0
2014-Apr-14 06:32N 54°35' W 001°13'3 3.2
2014-Apr-14 05:32N 54°37' W 001°09'3 0.5
2014-Apr-13 22:31N 54°35' W 001°13'0 0.0
2014-Apr-13 21:31N 54°35' W 001°13'0 0.0
2014-Apr-13 20:31N 54°35' W 001°13'0 0.0
2014-Apr-13 19:31N 54°35' W 001°13'0 0.0
2014-Apr-13 18:31N 54°35' W 001°13'0 0.0
2014-Apr-13 17:31N 54°35' W 001°13'0 0.0
2014-Apr-13 16:31N 54°35' W 001°13'0 0.0
2014-Apr-13 15:28N 54°35' W 001°13'0 0.0
2014-Apr-13 14:31N 54°35' W 001°13'0 0.0
2014-Apr-13 13:32N 54°35' W 001°13'3 3.2
2014-Apr-13 12:31N 54°37' W 001°09'3 3.4
2014-Apr-13 11:32N 54°35' W 001°13'0 0.0
2014-Apr-13 10:32N 54°35' W 001°13'0 0.0
2014-Apr-13 09:32N 54°35' W 001°13'0 0.0
2014-Apr-13 08:29N 54°35' W 001°13'0 0.0
2014-Apr-13 07:32N 54°35' W 001°13'0 0.0
2014-Apr-13 06:32N 54°35' W 001°13'0 0.0
2014-Apr-13 05:32N 54°35' W 001°13'0 0.0
2014-Apr-13 04:32N 54°35' W 001°13'0 0.0
2014-Apr-13 03:32N 54°35' W 001°13'0 0.0
2014-Apr-13 02:32N 54°35' W 001°13'0 0.0
2014-Apr-13 01:32N 54°35' W 001°13'0 0.0
2014-Apr-13 00:32N 54°35' W 001°13'0 0.0
2014-Apr-12 23:29N 54°35' W 001°13'0 0.0
2014-Apr-12 22:32N 54°35' W 001°13'0 0.0
2014-Apr-12 21:32N 54°35' W 001°13'0 0.0
2014-Apr-12 20:32N 54°35' W 001°13'0 0.0
2014-Apr-12 19:32N 54°35' W 001°13'0 0.0
2014-Apr-12 18:32N 54°35' W 001°13'0 0.0
2014-Apr-12 17:32N 54°35' W 001°13'0 0.0
2014-Apr-12 16:32N 54°35' W 001°13'0 0.0
2014-Apr-12 15:32N 54°35' W 001°13'3 3.2
2014-Apr-12 14:33N 54°37' W 001°09'0 0.4
2014-Apr-12 13:31N 54°38' W 001°10'0 0.4
2014-Apr-12 12:33N 54°37' W 001°09'0 0.4
2014-Apr-12 11:33N 54°37' W 001°09'1 0.7
2014-Apr-12 10:28N 54°36' W 001°10'2 2.1
2014-Apr-12 09:26N 54°35' W 001°13'0 0.0
2014-Apr-12 08:32N 54°35' W 001°13'0 0.0
2014-Apr-12 07:32N 54°35' W 001°13'0 0.0
2014-Apr-12 06:32N 54°35' W 001°13'0 0.0
2014-Apr-12 05:32N 54°35' W 001°13'0 0.0
2014-Apr-12 04:32N 54°35' W 001°13'0 0.0
2014-Apr-12 03:32N 54°35' W 001°13'0 0.0
2014-Apr-12 02:32N 54°35' W 001°13'0 0.0
2014-Apr-12 01:32N 54°35' W 001°13'0 0.0
2014-Apr-12 00:32N 54°35' W 001°13'0 0.0
2014-Apr-11 23:32N 54°35' W 001°13'0 0.0
2014-Apr-11 22:32N 54°35' W 001°13'0 0.0
2014-Apr-11 21:32N 54°35' W 001°13'0 0.0
2014-Apr-11 20:32N 54°35' W 001°13'0 0.0
2014-Apr-11 19:32N 54°35' W 001°13'0 0.0
2014-Apr-11 18:32N 54°35' W 001°13'0 0.0
2014-Apr-11 17:32N 54°35' W 001°13'0 0.0
2014-Apr-11 16:32N 54°35' W 001°13'0 0.0
2014-Apr-11 15:29N 54°35' W 001°13'0 0.0
2014-Apr-11 14:32N 54°35' W 001°13'3 3.2
2014-Apr-11 13:31N 54°38' W 001°11'0 0.0
2014-Apr-11 12:31N 54°38' W 001°11'0 0.1
2014-Apr-11 11:33N 54°38' W 001°11'0 0.0
2014-Apr-11 10:33N 54°38' W 001°11'3 3.2
2014-Apr-11 09:33N 54°35' W 001°13'0 0.0
2014-Apr-11 08:31N 54°35' W 001°13'0 0.0
2014-Apr-11 07:31N 54°35' W 001°13'0 0.0
2014-Apr-11 06:31N 54°35' W 001°13'0 0.0
2014-Apr-11 05:31N 54°35' W 001°13'2 2.6
2014-Apr-11 04:33N 54°37' W 001°10'2 2.4
2014-Apr-11 03:33N 54°35' W 001°12'0 0.1
2014-Apr-11 02:32N 54°35' W 001°13'0 0.0
2014-Apr-11 01:32N 54°35' W 001°13'0 0.0
2014-Apr-11 00:32N 54°35' W 001°13'0 0.0
2014-Apr-10 23:32N 54°35' W 001°13'0 0.0
2014-Apr-10 22:32N 54°35' W 001°13'0 0.0
2014-Apr-10 21:32N 54°35' W 001°13'0 0.0
2014-Apr-10 20:32N 54°35' W 001°13'0 0.0
2014-Apr-10 19:32N 54°35' W 001°13'0 0.0
2014-Apr-10 18:32N 54°35' W 001°13'0 0.0
2014-Apr-10 17:32N 54°35' W 001°13'0 0.0
2014-Apr-10 16:32N 54°35' W 001°13'0 0.0
2014-Apr-10 15:29N 54°35' W 001°13'0 0.0
2014-Apr-10 14:32N 54°35' W 001°13'0 0.0
2014-Apr-10 13:32N 54°35' W 001°13'0 0.0
2014-Apr-10 12:32N 54°35' W 001°13'0 0.0
2014-Apr-10 11:32N 54°35' W 001°13'0 0.0
2014-Apr-10 10:32N 54°35' W 001°13'0 0.0
2014-Apr-10 09:32N 54°35' W 001°13'0 0.0
2014-Apr-10 08:32N 54°35' W 001°13'0 0.0
2014-Apr-10 07:32N 54°35' W 001°13'0 0.0
2014-Apr-10 06:32N 54°35' W 001°13'0 0.0
2014-Apr-10 05:32N 54°35' W 001°13'0 0.0
2014-Apr-10 04:32N 54°35' W 001°13'2 2.4
2014-Apr-10 03:33N 54°36' W 001°09'1 1.3
2014-Apr-10 02:29N 54°37' W 001°09'1 0.6
2014-Apr-10 01:33N 54°38' W 001°09'0 0.4
2014-Apr-10 00:33N 54°38' W 001°09'0 0.2
2014-Apr-09 23:32N 54°38' W 001°10'0 0.5
2014-Apr-09 22:31N 54°37' W 001°09'0 0.0
2014-Apr-09 21:32N 54°37' W 001°09'0 0.2
2014-Apr-09 20:33N 54°38' W 001°09'3 3.3
2014-Apr-09 19:32N 54°35' W 001°13'0 0.0
2014-Apr-09 18:32N 54°35' W 001°13'0 0.0
2014-Apr-09 17:32N 54°35' W 001°13'0 0.0
2014-Apr-09 16:32N 54°35' W 001°13'0 0.0
2014-Apr-09 15:32N 54°35' W 001°13'0 0.0
2014-Apr-09 14:32N 54°35' W 001°13'0 0.0
2014-Apr-09 13:32N 54°35' W 001°13'0 0.0
2014-Apr-09 12:32N 54°35' W 001°13'0 0.0
2014-Apr-09 11:32N 54°35' W 001°13'2 2.3
2014-Apr-09 10:32N 54°36' W 001°09'1 1.2
2014-Apr-09 09:31N 54°37' W 001°10'0 0.2
2014-Apr-09 08:32N 54°38' W 001°09'3 3.4
2014-Apr-09 07:34N 54°35' W 001°13'0 0.0
2014-Apr-09 06:33N 54°35' W 001°13'0 0.0
2014-Apr-09 05:30N 54°35' W 001°13'0 0.0
2014-Apr-09 04:33N 54°35' W 001°13'0 0.0
2014-Apr-09 03:33N 54°35' W 001°13'0 0.0
2014-Apr-09 02:33N 54°35' W 001°13'0 0.0
2014-Apr-09 01:33N 54°35' W 001°13'0 0.0
2014-Apr-09 00:33N 54°35' W 001°13'0 0.0
2014-Apr-08 23:33N 54°35' W 001°13'0 0.0
2014-Apr-08 22:33N 54°35' W 001°13'0 0.0
2014-Apr-08 21:33N 54°35' W 001°13'4 3.5
2014-Apr-08 20:33N 54°38' W 001°09'2 1.7
2014-Apr-08 19:32N 54°36' W 001°09'2 1.7
2014-Apr-08 18:30N 54°38' W 001°09'3 2.9
2014-Apr-08 17:33N 54°35' W 001°11'2 2.2
2014-Apr-08 16:29N 54°37' W 001°09'0 0.1
2014-Apr-08 15:31N 54°37' W 001°09'0 0.2
2014-Apr-08 14:33N 54°38' W 001°09'1 1.1
2014-Apr-08 13:33N 54°36' W 001°09'1 0.9
2014-Apr-08 12:33N 54°37' W 001°09'0 0.4
2014-Apr-08 11:31N 54°37' W 001°10'0 0.4
2014-Apr-08 10:31N 54°37' W 001°09'0 0.5
2014-Apr-08 09:31N 54°37' W 001°10'2 2.0
2014-Apr-08 08:33N 54°36' W 001°11'1 1.2
2014-Apr-08 07:33N 54°35' W 001°13'0 0.0
2014-Apr-08 06:33N 54°35' W 001°13'0 0.0
2014-Apr-08 05:33N 54°35' W 001°13'0 0.0
2014-Apr-08 04:33N 54°35' W 001°13'0 0.0
2014-Apr-08 03:33N 54°35' W 001°13'0 0.0
2014-Apr-08 02:33N 54°35' W 001°13'0 0.0
2014-Apr-08 01:33N 54°35' W 001°13'0 0.0
2014-Apr-08 00:33N 54°35' W 001°13'0 0.0
2014-Apr-07 23:33N 54°35' W 001°13'0 0.0
2014-Apr-07 22:33N 54°35' W 001°13'0 0.0
2014-Apr-07 21:33N 54°35' W 001°13'0 0.2
2014-Apr-07 20:33N 54°35' W 001°12'0 0.2
2014-Apr-07 19:33N 54°35' W 001°13'0 0.0
2014-Apr-07 17:29N 54°35' W 001°13'0 0.0
2014-Apr-07 16:32N 54°35' W 001°13'0 0.0
2014-Apr-07 15:32N 54°35' W 001°13'0 0.0
2014-Apr-07 14:32N 54°35' W 001°13'0 0.0
2014-Apr-07 13:32N 54°35' W 001°13'0 0.0
2014-Apr-07 12:32N 54°35' W 001°13'0 0.0
2014-Apr-07 11:32N 54°35' W 001°13'0 0.0
2014-Apr-07 10:32N 54°35' W 001°13'0 0.0
2014-Apr-07 09:32N 54°35' W 001°13'0 0.0
2014-Apr-07 08:32N 54°35' W 001°13'3 3.0
2014-Apr-07 07:32N 54°37' W 001°10'1 0.7
2014-Apr-07 06:34N 54°38' W 001°09'4 3.6
2014-Apr-07 05:32N 54°35' W 001°13'0 0.0
2014-Apr-07 04:32N 54°35' W 001°13'0 0.0
2014-Apr-07 03:29N 54°35' W 001°13'0 0.0
2014-Apr-07 02:32N 54°35' W 001°13'0 0.0
2014-Apr-07 01:32N 54°35' W 001°13'0 0.0
2014-Apr-07 00:32N 54°35' W 001°13'0 0.0
2014-Apr-06 23:32N 54°35' W 001°13'0 0.0
2014-Apr-06 22:32N 54°35' W 001°13'0 0.0
2014-Apr-06 21:32N 54°35' W 001°13'  

Dump ship's entire track history

sailing weather and tide predictions

Phoenix Cross — MRBQ7 — position and weather